createdAt,value
2023-03-02T00:01:48.213Z,99.90
2023-03-02T00:04:21.514Z,99.90
2023-03-02T00:06:52.742Z,99.90
2023-03-02T00:09:20.764Z,99.90
2023-03-02T00:11:49.013Z,99.90
2023-03-02T00:14:17.039Z,99.90
2023-03-02T00:16:44.943Z,99.90
2023-03-02T00:19:12.978Z,99.90
2023-03-02T00:21:41.281Z,99.90
2023-03-02T00:24:10.888Z,99.90
2023-03-02T00:26:38.921Z,99.90
2023-03-02T00:29:07.069Z,99.90
2023-03-02T00:31:35.380Z,99.90
2023-03-02T00:34:03.328Z,99.90
2023-03-02T00:36:31.222Z,99.90
2023-03-02T00:38:59.327Z,99.90
2023-03-02T00:41:28.998Z,99.90
2023-03-02T00:43:57.243Z,99.90
2023-03-02T00:46:26.216Z,99.90
2023-03-02T00:48:54.133Z,99.90
2023-03-02T00:51:22.365Z,99.90
2023-03-02T00:53:50.279Z,99.90
2023-03-02T00:56:18.452Z,99.90
2023-03-02T00:58:51.846Z,99.90
2023-03-02T01:01:20.273Z,99.90
2023-03-02T01:03:51.946Z,99.90
2023-03-02T01:06:22.401Z,99.90
2023-03-02T01:08:50.945Z,99.90
2023-03-02T01:11:21.345Z,99.90
2023-03-02T01:13:51.262Z,99.90
2023-03-02T01:16:19.291Z,99.90
2023-03-02T01:18:47.316Z,99.90
2023-03-02T01:21:16.713Z,99.90
2023-03-02T01:23:45.473Z,99.90
2023-03-02T01:26:13.398Z,99.90
2023-03-02T01:28:41.323Z,99.90
2023-03-02T01:31:11.076Z,99.90
2023-03-02T01:33:39.056Z,99.90
2023-03-02T01:36:08.048Z,99.90
2023-03-02T01:38:36.051Z,99.90
2023-03-02T01:41:04.008Z,99.90
2023-03-02T01:43:31.908Z,99.90
2023-03-02T01:46:02.664Z,99.90
2023-03-02T01:48:53.208Z,99.90
2023-03-02T01:51:48.208Z,99.90
2023-03-02T01:54:23.099Z,99.90
2023-03-02T01:57:00.135Z,99.90
2023-03-02T01:59:31.280Z,99.90
2023-03-02T02:02:02.723Z,99.90
2023-03-02T02:04:33.330Z,99.90
2023-03-02T02:07:04.439Z,99.90
2023-03-02T02:09:36.304Z,99.90
2023-03-02T02:12:05.838Z,99.90
2023-03-02T02:14:35.110Z,99.90
2023-03-02T02:17:03.568Z,99.90
2023-03-02T02:19:42.813Z,99.90
2023-03-02T02:22:11.933Z,99.90
2023-03-02T02:24:47.055Z,99.90
2023-03-02T02:27:16.603Z,99.90
2023-03-02T02:29:48.291Z,99.90
2023-03-02T02:32:20.094Z,99.90
2023-03-02T02:34:51.770Z,99.90
2023-03-02T02:37:23.748Z,99.90
2023-03-02T02:39:53.239Z,99.90
2023-03-02T02:42:29.066Z,99.90
2023-03-02T02:44:59.022Z,99.90
2023-03-02T02:47:29.006Z,99.90
2023-03-02T02:49:58.107Z,99.90
2023-03-02T02:52:29.051Z,99.90
2023-03-02T02:54:58.838Z,99.90
2023-03-02T02:57:30.906Z,99.90
2023-03-02T03:00:01.002Z,99.90
2023-03-02T03:02:35.737Z,99.90
2023-03-02T03:05:03.773Z,99.90
2023-03-02T03:07:34.923Z,99.90
2023-03-02T03:10:09.636Z,99.90
2023-03-02T03:12:40.889Z,99.90
2023-03-02T03:15:10.604Z,99.90
2023-03-02T03:17:38.573Z,99.90
2023-03-02T03:20:09.414Z,99.90
2023-03-02T03:22:41.083Z,99.90
2023-03-02T03:25:15.548Z,99.90
2023-03-02T03:27:47.192Z,99.90
2023-03-02T03:30:16.142Z,99.90
2023-03-02T03:32:44.779Z,99.90
2023-03-02T03:35:14.552Z,99.90
2023-03-02T03:37:43.074Z,99.90
2023-03-02T03:40:12.764Z,99.90
2023-03-02T03:42:44.040Z,99.90
2023-03-02T03:45:13.717Z,99.90
2023-03-02T03:47:43.962Z,99.90
2023-03-02T03:50:12.499Z,99.90
2023-03-02T03:52:41.539Z,99.90
2023-03-02T03:55:17.645Z,99.90
2023-03-02T03:57:47.683Z,99.90
2023-03-02T04:00:19.044Z,99.90
2023-03-02T04:02:52.620Z,99.90
2023-03-02T04:05:21.463Z,99.90
2023-03-02T04:07:53.108Z,99.90
2023-03-02T04:10:22.228Z,99.90
2023-03-02T04:12:52.498Z,99.90
2023-03-02T04:15:21.857Z,99.90
2023-03-02T04:17:52.263Z,99.90
2023-03-02T04:20:23.238Z,99.90
2023-03-02T04:22:55.312Z,99.90
2023-03-02T04:25:25.411Z,99.90
2023-03-02T04:27:57.193Z,99.90
2023-03-02T04:30:30.058Z,99.90
2023-03-02T04:32:58.404Z,99.90
2023-03-02T04:35:29.295Z,99.90
2023-03-02T04:37:57.457Z,99.90
2023-03-02T04:40:26.126Z,99.90
2023-03-02T04:42:54.030Z,99.90
2023-03-02T04:45:22.267Z,99.90
2023-03-02T04:47:51.622Z,99.90
2023-03-02T04:50:19.604Z,99.90
2023-03-02T04:52:47.970Z,99.90
2023-03-02T04:55:20.636Z,99.90
2023-03-02T04:57:49.080Z,99.90
2023-03-02T05:00:19.673Z,99.90
2023-03-02T05:02:47.933Z,99.90
2023-03-02T05:05:20.160Z,99.90
2023-03-02T05:07:48.432Z,99.90
2023-03-02T05:10:17.729Z,99.90
2023-03-02T05:12:58.112Z,99.90
2023-03-02T05:15:28.810Z,99.90
2023-03-02T05:17:57.214Z,99.90
2023-03-02T05:20:27.552Z,99.90
2023-03-02T05:22:56.491Z,99.90
2023-03-02T05:25:25.118Z,99.90
2023-03-02T05:27:53.762Z,99.90
2023-03-02T05:30:22.626Z,99.90
2023-03-02T05:32:51.259Z,99.90
2023-03-02T05:35:19.635Z,99.90
2023-03-02T05:37:48.979Z,99.90
2023-03-02T05:40:20.281Z,99.90
2023-03-02T05:42:48.581Z,99.90
2023-03-02T05:45:20.878Z,99.90
2023-03-02T05:47:48.938Z,99.90
2023-03-02T05:50:17.099Z,99.90
2023-03-02T05:52:45.389Z,99.90
2023-03-02T05:55:15.045Z,99.90
2023-03-02T05:57:43.401Z,99.90
2023-03-02T06:00:13.331Z,99.90
2023-03-02T06:02:41.436Z,99.90
2023-03-02T06:05:12.495Z,99.90
2023-03-02T06:07:41.056Z,99.90
2023-03-02T06:10:11.575Z,99.90
2023-03-02T06:12:41.308Z,99.90
2023-03-02T06:15:10.480Z,99.90
2023-03-02T06:17:38.382Z,99.90
2023-03-02T06:20:10.854Z,99.90
2023-03-02T06:22:41.111Z,99.90
2023-03-02T06:25:10.678Z,99.90
2023-03-02T06:27:41.160Z,99.90
2023-03-02T06:30:12.360Z,99.90
2023-03-02T06:32:40.408Z,99.90
2023-03-02T06:35:09.823Z,99.90
2023-03-02T06:37:37.844Z,99.90
2023-03-02T06:40:10.356Z,99.90
2023-03-02T06:42:40.284Z,99.90
2023-03-02T06:45:09.913Z,99.90
2023-03-02T06:47:37.806Z,99.90
2023-03-02T06:50:06.654Z,99.90
2023-03-02T06:52:35.117Z,99.90
2023-03-02T06:55:03.729Z,99.90
2023-03-02T06:57:34.147Z,99.90
2023-03-02T07:00:09.467Z,99.90
2023-03-02T07:02:37.632Z,99.90
2023-03-02T07:05:06.661Z,99.90
2023-03-02T07:07:34.574Z,99.90
2023-03-02T07:10:02.560Z,99.90
2023-03-02T07:12:30.473Z,99.90
2023-03-02T07:14:58.453Z,99.90
2023-03-02T07:17:27.811Z,99.90
2023-03-02T07:19:55.809Z,99.90
2023-03-02T07:22:24.068Z,99.90
2023-03-02T07:24:52.020Z,99.90
2023-03-02T07:27:19.922Z,99.90
2023-03-02T07:29:47.900Z,99.90
2023-03-02T07:32:15.900Z,99.90
2023-03-02T07:34:45.309Z,99.90
2023-03-02T07:37:13.241Z,99.90
2023-03-02T07:39:41.071Z,99.90
2023-03-02T07:42:11.366Z,99.90
2023-03-02T07:44:41.839Z,99.90
2023-03-02T07:47:09.871Z,99.90
2023-03-02T07:49:37.837Z,99.90
2023-03-02T07:52:07.232Z,99.90
2023-03-02T07:54:35.140Z,99.90
2023-03-02T07:57:03.164Z,99.90
2023-03-02T07:59:31.034Z,99.90
2023-03-02T08:01:59.077Z,99.90
2023-03-02T08:04:27.456Z,99.90
2023-03-02T08:06:55.547Z,99.90
2023-03-02T08:09:24.907Z,99.90
2023-03-02T08:11:52.761Z,99.90
2023-03-02T08:14:20.698Z,99.90
2023-03-02T08:16:48.638Z,99.90
2023-03-02T08:19:16.739Z,99.90
2023-03-02T08:21:45.099Z,99.90
2023-03-02T08:24:13.058Z,99.90
2023-03-02T08:26:42.344Z,99.90
2023-03-02T08:29:10.836Z,99.90
2023-03-02T08:31:38.785Z,99.90
2023-03-02T08:34:06.858Z,99.90
2023-03-02T08:36:34.898Z,99.90
2023-03-02T08:39:03.054Z,99.90
2023-03-02T08:41:31.411Z,99.90
2023-03-02T08:44:00.713Z,99.90
2023-03-02T08:46:28.774Z,99.90
2023-03-02T08:48:56.669Z,99.90
2023-03-02T08:51:26.564Z,99.90
2023-03-02T08:53:56.753Z,99.90
2023-03-02T08:56:27.041Z,99.90
2023-03-02T08:58:58.440Z,99.90
2023-03-02T09:01:30.061Z,99.90
2023-03-02T09:03:59.773Z,99.90
2023-03-02T09:06:29.600Z,99.90
2023-03-02T09:08:57.804Z,99.90
2023-03-02T09:11:26.293Z,99.90
2023-03-02T09:13:54.908Z,99.90
2023-03-02T09:16:25.739Z,99.90
2023-03-02T09:18:55.367Z,99.90
2023-03-02T09:21:23.563Z,99.90
2023-03-02T09:23:53.704Z,99.90
2023-03-02T09:26:21.651Z,99.90
2023-03-02T09:28:49.695Z,99.90
2023-03-02T09:31:17.721Z,99.90
2023-03-02T09:33:45.803Z,99.90
2023-03-02T09:36:21.532Z,99.90
2023-03-02T09:38:49.819Z,99.90
2023-03-02T09:41:53.237Z,99.90
2023-03-02T09:44:54.341Z,99.90
2023-03-02T09:47:35.448Z,99.90
2023-03-02T09:50:16.778Z,99.90
2023-03-02T09:52:53.796Z,99.90
2023-03-02T09:55:26.130Z,99.90
2023-03-02T09:57:55.828Z,99.90
2023-03-02T10:00:30.037Z,99.90
2023-03-02T10:03:14.710Z,99.90
2023-03-02T10:05:45.283Z,99.90
2023-03-02T10:08:16.759Z,99.90
2023-03-02T10:10:47.595Z,99.90
2023-03-02T10:13:23.416Z,99.90
2023-03-02T10:16:03.096Z,99.90
2023-03-02T10:18:36.755Z,99.90
2023-03-02T10:21:11.567Z,99.90
2023-03-02T10:23:45.875Z,99.90
2023-03-02T10:26:24.492Z,99.90
2023-03-02T10:28:59.407Z,99.90
2023-03-02T10:31:30.291Z,99.90
2023-03-02T10:33:59.327Z,99.60
2023-03-02T10:36:30.675Z,99.00
2023-03-02T10:39:01.332Z,98.80
2023-03-02T10:41:34.092Z,98.30
2023-03-02T10:44:06.743Z,97.50
2023-03-02T10:46:42.189Z,96.90
2023-03-02T10:49:26.794Z,96.00
2023-03-02T10:52:00.896Z,95.10
2023-03-02T10:54:31.757Z,94.90
2023-03-02T10:57:02.062Z,94.30
2023-03-02T10:59:43.230Z,94.00
2023-03-02T11:02:18.278Z,94.20
2023-03-02T11:04:46.542Z,93.80
2023-03-02T11:07:18.685Z,93.90
2023-03-02T11:09:59.294Z,93.10
2023-03-02T11:12:27.451Z,92.80
2023-03-02T11:15:18.699Z,92.70
2023-03-02T11:17:49.735Z,91.90
2023-03-02T11:20:23.080Z,90.90
2023-03-02T11:23:00.273Z,90.40
2023-03-02T11:25:33.402Z,90.00
2023-03-02T11:28:06.379Z,88.40
2023-03-02T11:30:41.521Z,88.30
2023-03-02T11:33:15.844Z,88.90
2023-03-02T11:35:48.400Z,89.10
2023-03-02T11:38:22.158Z,89.20
2023-03-02T11:40:55.378Z,89.10
2023-03-02T11:43:23.412Z,89.30
2023-03-02T11:45:59.090Z,87.60
2023-03-02T11:48:32.384Z,86.40
2023-03-02T11:51:03.113Z,85.70
2023-03-02T11:53:37.809Z,84.70
2023-03-02T11:56:07.706Z,85.00
2023-03-02T11:58:35.895Z,85.20
2023-03-02T12:01:05.302Z,85.30
2023-03-02T12:03:42.082Z,84.40
2023-03-02T12:06:27.280Z,83.60
2023-03-02T12:09:08.005Z,83.40
2023-03-02T12:11:40.342Z,84.10
2023-03-02T12:14:27.411Z,82.80
2023-03-02T12:17:06.603Z,81.00
2023-03-02T12:19:42.422Z,79.80
2023-03-02T12:22:14.464Z,78.10
2023-03-02T12:24:44.747Z,78.40
2023-03-02T12:27:27.808Z,79.30
2023-03-02T12:30:10.384Z,79.70
2023-03-02T12:32:38.772Z,80.90
2023-03-02T12:35:13.265Z,80.70
2023-03-02T12:37:47.403Z,81.40
2023-03-02T12:40:54.370Z,81.40
2023-03-02T12:43:32.655Z,79.30
2023-03-02T12:46:27.020Z,78.40
2023-03-02T12:49:14.518Z,79.20
2023-03-02T12:51:51.660Z,78.30
2023-03-02T12:54:21.832Z,80.20
2023-03-02T12:56:51.526Z,79.60
2023-03-02T12:59:23.995Z,79.80
2023-03-02T13:01:51.872Z,80.30
2023-03-02T13:04:28.078Z,80.80
2023-03-02T13:06:56.199Z,82.50
2023-03-02T13:09:24.636Z,84.30
2023-03-02T13:11:54.934Z,84.80
2023-03-02T13:14:27.567Z,86.00
2023-03-02T13:16:57.880Z,86.70
2023-03-02T13:19:26.965Z,87.10
2023-03-02T13:21:55.085Z,88.00
2023-03-02T13:24:45.573Z,88.80
2023-03-02T13:27:18.638Z,88.70
2023-03-02T13:29:48.298Z,88.90
2023-03-02T13:32:19.169Z,89.60
2023-03-02T13:34:50.036Z,90.10
2023-03-02T13:37:22.714Z,90.30
2023-03-02T13:39:58.231Z,90.50
2023-03-02T13:42:28.895Z,90.30
2023-03-02T13:44:58.167Z,90.60
2023-03-02T13:47:26.248Z,91.30
2023-03-02T13:49:54.356Z,92.00
2023-03-02T13:52:28.653Z,91.90
2023-03-02T13:54:56.538Z,91.60
2023-03-02T13:57:30.784Z,91.20
2023-03-02T14:00:00.948Z,91.20
2023-03-02T14:02:30.382Z,91.30
2023-03-02T14:04:59.002Z,90.70
2023-03-02T14:07:26.993Z,90.70
2023-03-02T14:09:56.614Z,90.50
2023-03-02T14:12:28.211Z,90.00
2023-03-02T14:14:59.296Z,87.40
2023-03-02T14:17:29.004Z,86.50
2023-03-02T14:19:57.140Z,84.70
2023-03-02T14:22:29.594Z,83.80
2023-03-02T14:24:57.548Z,83.60
2023-03-02T14:27:29.312Z,84.00
2023-03-02T14:29:57.445Z,82.30
2023-03-02T14:32:25.355Z,80.70
2023-03-02T14:34:54.653Z,78.60
2023-03-02T14:37:27.869Z,78.70
2023-03-02T14:39:56.067Z,79.50
2023-03-02T14:42:24.567Z,78.50
2023-03-02T14:44:53.324Z,79.20
2023-03-02T14:47:21.933Z,79.50
2023-03-02T14:49:49.862Z,78.20
2023-03-02T14:52:24.914Z,76.90
2023-03-02T14:54:55.483Z,76.50
2023-03-02T14:57:26.097Z,75.60
2023-03-02T14:59:54.748Z,76.10
2023-03-02T15:02:27.000Z,78.20
2023-03-02T15:04:57.068Z,81.00
2023-03-02T15:07:27.749Z,84.30
2023-03-02T15:09:56.016Z,85.90
2023-03-02T15:12:24.171Z,86.30
2023-03-02T15:14:52.322Z,85.30
2023-03-02T15:17:20.328Z,86.30
2023-03-02T15:19:48.941Z,84.50
2023-03-02T15:22:17.116Z,84.60
2023-03-02T15:24:46.350Z,84.10
2023-03-02T15:27:14.250Z,84.10
2023-03-02T15:29:44.744Z,85.00
2023-03-02T15:32:13.052Z,86.20
2023-03-02T15:34:41.151Z,88.10
2023-03-02T15:37:10.430Z,90.10
2023-03-02T15:39:38.685Z,90.60
2023-03-02T15:42:08.613Z,91.20
2023-03-02T15:44:36.549Z,91.60
2023-03-02T15:47:04.680Z,92.10
2023-03-02T15:49:32.979Z,92.30
2023-03-02T15:52:00.931Z,92.50
2023-03-02T15:54:30.804Z,92.70
2023-03-02T15:56:59.037Z,93.00
2023-03-02T15:59:29.999Z,93.50
2023-03-02T16:01:59.333Z,93.70
2023-03-02T16:04:28.344Z,93.40
2023-03-02T16:06:56.358Z,93.70
2023-03-02T16:09:25.408Z,94.00
2023-03-02T16:11:54.190Z,94.30
2023-03-02T16:14:22.056Z,94.40
2023-03-02T16:16:51.843Z,94.50
2023-03-02T16:19:20.547Z,94.70
2023-03-02T16:21:49.327Z,94.90
2023-03-02T16:24:17.363Z,95.20
2023-03-02T16:26:46.153Z,95.60
2023-03-02T16:29:15.034Z,95.80
2023-03-02T16:31:46.273Z,96.20
2023-03-02T16:34:17.522Z,96.50
2023-03-02T16:36:45.991Z,96.90
2023-03-02T16:39:14.487Z,96.90
2023-03-02T16:41:46.089Z,97.10
2023-03-02T16:44:14.509Z,97.20
2023-03-02T16:46:43.492Z,97.60
2023-03-02T16:49:12.281Z,97.50
2023-03-02T16:51:42.513Z,98.30
2023-03-02T16:54:11.217Z,98.60
2023-03-02T16:56:39.679Z,98.80
2023-03-02T16:59:07.619Z,99.00
2023-03-02T17:01:35.577Z,99.20
2023-03-02T17:04:05.859Z,99.30
2023-03-02T17:06:33.965Z,99.50
2023-03-02T17:09:03.415Z,99.70
2023-03-02T17:11:31.875Z,99.70
2023-03-02T17:13:59.890Z,99.90
2023-03-02T17:16:27.976Z,99.90
2023-03-02T17:18:56.030Z,99.90
2023-03-02T17:21:24.426Z,99.90
2023-03-02T17:23:52.364Z,99.90
2023-03-02T17:26:21.649Z,99.90
2023-03-02T17:28:49.662Z,99.90
2023-03-02T17:31:17.775Z,99.90
2023-03-02T17:33:45.875Z,99.90
2023-03-02T17:36:15.365Z,99.90
2023-03-02T17:38:43.332Z,99.90
2023-03-02T17:41:12.326Z,99.90
2023-03-02T17:43:42.663Z,99.90
2023-03-02T17:46:13.034Z,99.90
2023-03-02T17:48:41.478Z,99.90
2023-03-02T17:51:11.636Z,99.90
2023-03-02T17:53:39.912Z,99.90
2023-03-02T17:56:08.134Z,99.90
2023-03-02T17:58:44.759Z,99.90
2023-03-02T18:01:16.209Z,99.90
2023-03-02T18:03:45.139Z,99.90
2023-03-02T18:06:13.320Z,99.90
2023-03-02T18:08:41.331Z,99.90
2023-03-02T18:11:09.321Z,99.90
2023-03-02T18:13:37.461Z,99.90
2023-03-02T18:16:05.990Z,99.90
2023-03-02T18:18:35.284Z,99.90
2023-03-02T18:21:03.464Z,99.90
2023-03-02T18:23:31.701Z,99.90
2023-03-02T18:25:59.665Z,99.90
2023-03-02T18:28:27.550Z,99.90
2023-03-02T18:30:55.480Z,99.90
2023-03-02T18:33:23.446Z,99.90
2023-03-02T18:35:52.866Z,99.90
2023-03-02T18:38:21.039Z,99.90
2023-03-02T18:40:49.031Z,99.90
2023-03-02T18:43:16.930Z,99.90
2023-03-02T18:45:44.915Z,99.90
2023-03-02T18:48:13.193Z,99.90
2023-03-02T18:50:41.201Z,99.90
2023-03-02T18:53:12.861Z,99.90
2023-03-02T18:55:41.249Z,99.90
2023-03-02T18:58:13.613Z,99.90
2023-03-02T19:00:41.907Z,99.90
2023-03-02T19:03:10.082Z,99.90
2023-03-02T19:05:38.368Z,99.90
2023-03-02T19:08:07.711Z,99.90
2023-03-02T19:10:38.166Z,99.90
2023-03-02T19:13:09.195Z,99.90
2023-03-02T19:15:37.139Z,99.90
2023-03-02T19:18:05.254Z,99.90
2023-03-02T19:20:33.622Z,99.90
2023-03-02T19:23:01.648Z,99.90
2023-03-02T19:25:29.544Z,99.90
2023-03-02T19:27:58.894Z,99.90
2023-03-02T19:30:28.185Z,99.90
2023-03-02T19:32:56.412Z,99.90
2023-03-02T19:35:26.180Z,99.90
2023-03-02T19:37:54.199Z,99.90
2023-03-02T19:40:24.627Z,99.90
2023-03-02T19:42:53.625Z,99.90
2023-03-02T19:45:27.191Z,99.90
2023-03-02T19:47:57.526Z,99.90
2023-03-02T19:50:27.007Z,99.90
2023-03-02T19:52:56.393Z,99.90
2023-03-02T19:55:25.639Z,99.90
2023-03-02T19:57:59.925Z,99.90
2023-03-02T20:00:31.126Z,99.90
2023-03-02T20:02:59.506Z,99.90
2023-03-02T20:05:28.378Z,99.90
2023-03-02T20:07:56.775Z,99.90
2023-03-02T20:10:31.230Z,99.90
2023-03-02T20:13:00.289Z,99.90
2023-03-02T20:15:30.311Z,99.90
2023-03-02T20:17:59.317Z,99.90
2023-03-02T20:20:27.869Z,99.90
2023-03-02T20:22:55.857Z,99.90
2023-03-02T20:25:24.128Z,99.90
2023-03-02T20:27:52.946Z,99.90
2023-03-02T20:30:30.142Z,99.90
2023-03-02T20:33:00.976Z,99.90
2023-03-02T20:35:31.107Z,99.90
2023-03-02T20:38:00.201Z,99.90
2023-03-02T20:40:29.220Z,99.90
2023-03-02T20:42:57.188Z,99.90
2023-03-02T20:45:25.519Z,99.90
2023-03-02T20:47:53.397Z,99.90
2023-03-02T20:50:26.190Z,99.90
2023-03-02T20:52:54.185Z,99.90
2023-03-02T20:55:22.383Z,99.90
2023-03-02T20:57:50.440Z,99.90
2023-03-02T21:00:21.626Z,99.90
2023-03-02T21:02:49.956Z,99.90
2023-03-02T21:05:20.702Z,99.90
2023-03-02T21:07:50.661Z,99.90
2023-03-02T21:10:21.664Z,99.90
2023-03-02T21:12:50.423Z,99.90
2023-03-02T21:15:20.301Z,99.90
2023-03-02T21:17:48.465Z,99.90
2023-03-02T21:20:18.386Z,99.90
2023-03-02T21:22:47.388Z,99.90
2023-03-02T21:25:17.347Z,99.90
2023-03-02T21:27:45.404Z,99.90
2023-03-02T21:30:19.759Z,99.90
2023-03-02T21:32:48.081Z,99.90
2023-03-02T21:35:19.839Z,99.90
2023-03-02T21:37:49.585Z,99.90
2023-03-02T21:40:22.641Z,99.90
2023-03-02T21:42:50.558Z,99.90
2023-03-02T21:45:19.374Z,99.90
2023-03-02T21:47:47.828Z,99.90
2023-03-02T21:50:19.593Z,99.90
2023-03-02T21:52:48.014Z,99.90
2023-03-02T21:55:18.355Z,99.90
2023-03-02T21:57:46.549Z,99.90
2023-03-02T22:00:22.163Z,99.90
2023-03-02T22:02:50.583Z,99.90
2023-03-02T22:05:19.365Z,99.90
2023-03-02T22:07:47.984Z,99.90
2023-03-02T22:10:25.713Z,99.90
2023-03-02T22:12:56.720Z,99.90
2023-03-02T22:15:25.132Z,99.90
2023-03-02T22:17:53.195Z,99.90
2023-03-02T22:20:21.835Z,99.90
2023-03-02T22:22:53.011Z,99.90
2023-03-02T22:25:25.838Z,99.90
2023-03-02T22:27:56.644Z,99.90
2023-03-02T22:30:25.232Z,99.90
2023-03-02T22:32:53.533Z,99.90
2023-03-02T22:35:25.118Z,99.90
2023-03-02T22:38:02.539Z,99.90
2023-03-02T22:40:36.239Z,99.90
2023-03-02T22:43:15.033Z,99.90
2023-03-02T22:45:43.697Z,99.90
2023-03-02T22:48:19.318Z,99.90
2023-03-02T22:50:51.882Z,99.90
2023-03-02T22:53:29.082Z,99.90
2023-03-02T22:56:03.844Z,99.90
2023-03-02T22:58:42.502Z,99.90
2023-03-02T23:01:20.969Z,99.90
2023-03-02T23:03:54.754Z,99.90
2023-03-02T23:06:47.924Z,99.90
2023-03-02T23:09:18.142Z,99.90
2023-03-02T23:11:47.896Z,99.90
2023-03-02T23:14:24.862Z,99.90
2023-03-02T23:16:55.789Z,99.90
2023-03-02T23:19:24.760Z,99.90
2023-03-02T23:21:52.746Z,99.90
2023-03-02T23:24:22.040Z,99.90
2023-03-02T23:26:52.885Z,99.90
2023-03-02T23:29:21.891Z,99.90
2023-03-02T23:31:50.719Z,99.90
2023-03-02T23:34:18.783Z,99.90
2023-03-02T23:36:46.702Z,99.90
2023-03-02T23:39:14.852Z,99.90
2023-03-02T23:41:42.807Z,99.90
2023-03-02T23:44:12.069Z,99.90
2023-03-02T23:46:40.086Z,99.90
2023-03-02T23:49:08.075Z,99.90
2023-03-02T23:51:36.076Z,99.90
2023-03-02T23:54:04.897Z,99.90
2023-03-02T23:56:33.094Z,99.90
2023-03-02T23:59:02.087Z,99.90
